x

West Point, Wa (wpow1) Weather Station

7:00am - Wed 7th Dec 2016 All times are PST. -8 hours from GMT.

  • Wind
    10mph, 14mph gusts
  • Air Temp 32°f
  • Sea Pressure 1030.6mb
  • West Point, Wa
  • West Point, Wa

More Historic Weather Station data

Upgrade to MSW Pro to gain access to the past 30 days of data for over 8000 Wavebouys and Weather Stations around the globe.

Join Pro

Comparision Forecast

View Surf forecast
   
Wed 12/07 7:00am 10 14 mph 1030.6mb 32f
6:00am 14 17 mph 1030.7mb 33f
5:00am 6 9 mph 1030.4mb 32f
4:00am 7 10 mph 1030.3mb 32f
3:00am 8 9 mph 1029.9mb 32f
2:00am 7 8 mph 1029.6mb 33f
1:00am 10 11 mph 1029mb 35f
12:00am 13 14 mph 1028.6mb 36f
Tue 12/06 11:00pm 5 6 mph 1028.1mb 36f
10:00pm 8 11 mph 1027.4mb 37f
9:00pm 7 9 mph 1026.8mb 37f
8:00pm 11 14 mph 1026.2mb 38f
7:00pm 17 20 mph 1025.6mb 38f
6:00pm 21 23 mph 1025.2mb 39f
4:00pm 21 24 mph 1024.1mb 39f
3:00pm 17 21 mph 1023.5mb 40f
2:00pm 16 20 mph 1022.7mb 40f
1:00pm 17 21 mph 1022.3mb 39f
12:00pm 21 24 mph 1021.8mb 39f
11:00am 25 28 mph 1021.3mb 39f
10:00am 17 20 mph 1021.3mb 38f
9:00am 14 15 mph 1020.3mb 37f
8:00am 14 16 mph 1019.4mb 36f
7:00am 9 13 mph 1019mb 35f
6:00am 8 10 mph 1018.4mb 35f
5:00am 10 13 mph 1017.8mb 38f
4:00am 3 6 mph 1017.4mb 36f
3:00am 6 9 mph 1017.1mb 37f
2:00am 2 5 mph 1016.8mb 37f
1:00am 7 9 mph 1016.6mb 38f
12:00am 6 7 mph 1016.7mb 37f
Mon 12/05 11:00pm 6
mph
1016.6mb 38f
10:00pm 8 9 mph 1016.5mb 37f
9:00pm 3 5 mph 1016.3mb 37f
8:00pm 5 6 mph 1016.2mb 37f
7:00pm 2 3 mph 1016.4mb 37f
6:00pm 2 5 mph 1016.3mb 39f
5:00pm  -  1 mph 1016.3mb 39f
4:00pm 9 11 mph 1016.3mb 40f
3:00pm 10 11 mph 1016.6mb 40f
2:00pm 11 14 mph 1016.8mb 40f
1:00pm 14 15 mph 1017.1mb 39f
12:00pm 15 17 mph 1017.4mb 39f
11:00am 18 21 mph 1017.9mb 39f
10:00am 16 18 mph 1018.3mb 38f
9:00am 22 24 mph 1017.9mb 37f
8:00am 26 30 mph 1018.3mb 37f
7:00am 24 28 mph 1018.2mb 38f
6:00am 21 24 mph 1018.5mb 40f
5:00am 21 23 mph 1019mb 40f
4:00am 23 25 mph 1019.7mb 40f
3:00am 22 24 mph 1020mb 40f
2:00am 20 23 mph 1020.3mb 39f
1:00am 18 20 mph 1020.5mb 39f
12:00am 20 21 mph 1020.7mb 39f
Sun 12/04 11:00pm 17 18 mph 1020.5mb 40f
10:00pm 14 16 mph 1020mb 42f
9:00pm 11 13 mph 1019.8mb 41f
8:00pm 11 15 mph 1019.3mb 40f
7:00pm 8 11 mph 1019.5mb 42f
6:00pm 3 6 mph 1019.6mb 40f
5:00pm 5 7 mph 1019mb 41f
4:00pm 6 7 mph 1018.9mb 45f
3:00pm 9 10 mph 1018.5mb 45f
2:00pm 8 9 mph 1018.1mb 44f
1:00pm 10 13 mph 1018mb 43f
12:00pm 13 16 mph 1017.8mb 42f
11:00am 11 13 mph 1017.7mb 43f
10:00am 5 6 mph 1017.1mb 42f
9:00am 7 8 mph 1016.5mb 42f
8:00am 3 5 mph 1015.9mb 42f
7:00am 7 8 mph 1015.2mb 43f
6:00am 13 14 mph 1015.2mb 41f
5:00am 8 9 mph 1015.3mb 43f
4:00am 9 11 mph 1015.5mb 43f
3:00am 9 11 mph 1015.9mb 43f
2:00am 14 15 mph 1016mb 44f
1:00am 11 14 mph 1016.6mb 46f
12:00am 14 16 mph 1017.1mb 47f
Sat 12/03 11:00pm 10 11 mph 1017.8mb 47f
10:00pm 15 17 mph 1018.3mb 47f
9:00pm 15 18 mph 1018.7mb 47f
8:00pm 29 33 mph 1018.8mb 49f
7:00pm 29 32 mph 1019.2mb 48f
6:00pm 29 32 mph 1020.1mb 49f